CEB658 RPVA-RPLL
Flight info
| Callsign | CEB658 |
|---|---|
| Flight time | 0h 59m |
| Altitude | 34000 |
| Route | MALAG5R MALAG W9 AKDAP AKDAP3R |
| Aircraft | A20N/M-SDE2E3FGHIJ1RWXY/LB1 |
Departure
| Time | 2026-04-21 00:58 |
|---|---|
| Airport | Daniel Z. Romualdez Airport (RPVA) |
Arrival
| Time | 2026-04-21 01:57 |
|---|---|
| Airport | Ninoy Aquino International Airport (RPLL) |
| Time | Latitude | Longitude | Altitude | Speed | Heading |
|---|---|---|---|---|---|
| 2026-04-21 00:21 | 11.22637 | 125.02647 | 20 ft | 0 kts | 316° |
| 2026-04-21 00:53 | 11.22645 | 125.02646 | 21 ft | 1 kts | 17° |
| 2026-04-21 00:53 | 11.22647 | 125.02660 | 21 ft | 2 kts | 120° |
| 2026-04-21 00:54 | 11.22613 | 125.02679 | 20 ft | 8 kts | 153° |
| 2026-04-21 00:54 | 11.22566 | 125.02728 | 19 ft | 10 kts | 103° |
| 2026-04-21 00:54 | 11.22515 | 125.02760 | 19 ft | 10 kts | 187° |
| 2026-04-21 00:54 | 11.22422 | 125.02752 | 18 ft | 15 kts | 184° |
| 2026-04-21 00:55 | 11.22298 | 125.02744 | 19 ft | 19 kts | 183° |
| 2026-04-21 00:55 | 11.22158 | 125.02735 | 20 ft | 19 kts | 184° |
| 2026-04-21 00:55 | 11.22026 | 125.02726 | 22 ft | 18 kts | 184° |
| 2026-04-21 00:55 | 11.21909 | 125.02718 | 24 ft | 10 kts | 177° |
| 2026-04-21 00:56 | 11.21847 | 125.02741 | 24 ft | 7 kts | 160° |
| 2026-04-21 00:56 | 11.21804 | 125.02731 | 23 ft | 6 kts | 251° |
| 2026-04-21 00:56 | 11.21817 | 125.02713 | 23 ft | 2 kts | 1° |
| 2026-04-21 00:56 | 11.21822 | 125.02713 | 23 ft | 0 kts | 2° |
| 2026-04-21 00:57 | 11.21940 | 125.02721 | 24 ft | 54 kts | 4° |
| 2026-04-21 00:57 | 11.22611 | 125.02765 | 19 ft | 132 kts | 4° |
| 2026-04-21 00:58 | 11.23652 | 125.02832 | 384 ft | 156 kts | 6° |
| 2026-04-21 00:58 | 11.24717 | 125.02883 | 1115 ft | 157 kts | 6° |
| 2026-04-21 00:58 | 11.25806 | 125.02950 | 1878 ft | 157 kts | 9° |
| 2026-04-21 00:58 | 11.26872 | 125.03027 | 2511 ft | 157 kts | 9° |
| 2026-04-21 00:59 | 11.27956 | 125.03106 | 3123 ft | 158 kts | 9° |
| 2026-04-21 00:59 | 11.29095 | 125.03189 | 3617 ft | 169 kts | 9° |
| 2026-04-21 00:59 | 11.30330 | 125.03279 | 4024 ft | 188 kts | 8° |
| 2026-04-21 00:59 | 11.31680 | 125.03374 | 4476 ft | 205 kts | 8° |
| 2026-04-21 01:00 | 11.33188 | 125.03307 | 4860 ft | 233 kts | 345° |
| 2026-04-21 01:00 | 11.34623 | 125.02347 | 5295 ft | 261 kts | 317° |
| 2026-04-21 01:00 | 11.35929 | 125.00986 | 5828 ft | 279 kts | 317° |
| 2026-04-21 01:00 | 11.37336 | 124.99569 | 6515 ft | 289 kts | 318° |
| 2026-04-21 01:01 | 11.38778 | 124.98139 | 7360 ft | 292 kts | 318° |
| 2026-04-21 01:01 | 11.40235 | 124.96703 | 8195 ft | 294 kts | 317° |
| 2026-04-21 01:01 | 11.41701 | 124.95262 | 9005 ft | 297 kts | 317° |
| 2026-04-21 01:01 | 11.43182 | 124.93808 | 9773 ft | 300 kts | 317° |
| 2026-04-21 01:02 | 11.44683 | 124.92336 | 10473 ft | 304 kts | 316° |
| 2026-04-21 01:02 | 11.46264 | 124.90785 | 10869 ft | 320 kts | 316° |
| 2026-04-21 01:02 | 11.47904 | 124.89174 | 11333 ft | 332 kts | 316° |
| 2026-04-21 01:02 | 11.49561 | 124.87546 | 11975 ft | 336 kts | 316° |
| 2026-04-21 01:03 | 11.51251 | 124.85886 | 12662 ft | 338 kts | 315° |
| 2026-04-21 01:03 | 11.52957 | 124.84211 | 13307 ft | 341 kts | 315° |
| 2026-04-21 01:03 | 11.54670 | 124.82526 | 13927 ft | 344 kts | 315° |
| 2026-04-21 01:03 | 11.56399 | 124.80836 | 14514 ft | 348 kts | 316° |
| 2026-04-21 01:04 | 11.58250 | 124.79206 | 15096 ft | 351 kts | 320° |
| 2026-04-21 01:04 | 11.60211 | 124.77727 | 15652 ft | 354 kts | 325° |
| 2026-04-21 01:04 | 11.62261 | 124.76331 | 16211 ft | 357 kts | 326° |
| 2026-04-21 01:04 | 11.64330 | 124.74944 | 16753 ft | 359 kts | 326° |
| 2026-04-21 01:05 | 11.66455 | 124.73521 | 17270 ft | 362 kts | 325° |
| 2026-04-21 01:05 | 11.68562 | 124.72107 | 17784 ft | 365 kts | 326° |
| 2026-04-21 01:05 | 11.70675 | 124.70686 | 18315 ft | 367 kts | 325° |
| 2026-04-21 01:05 | 11.72822 | 124.69243 | 18829 ft | 370 kts | 325° |
| 2026-04-21 01:06 | 11.74977 | 124.67792 | 19313 ft | 372 kts | 325° |
| 2026-04-21 01:06 | 11.77133 | 124.66339 | 19805 ft | 374 kts | 325° |
| 2026-04-21 01:06 | 11.79332 | 124.64858 | 20304 ft | 377 kts | 325° |
| 2026-04-21 01:06 | 11.81531 | 124.63375 | 20790 ft | 379 kts | 325° |
| 2026-04-21 01:07 | 11.83744 | 124.61883 | 21258 ft | 382 kts | 325° |
| 2026-04-21 01:07 | 11.85946 | 124.60397 | 21742 ft | 384 kts | 325° |
| 2026-04-21 01:07 | 11.88186 | 124.58887 | 22210 ft | 386 kts | 325° |
| 2026-04-21 01:07 | 11.90425 | 124.57375 | 22677 ft | 389 kts | 326° |
| 2026-04-21 01:08 | 11.92695 | 124.55843 | 23147 ft | 391 kts | 326° |
| 2026-04-21 01:08 | 11.94975 | 124.54303 | 23609 ft | 394 kts | 326° |
| 2026-04-21 01:08 | 11.97291 | 124.52742 | 24066 ft | 397 kts | 326° |
| 2026-04-21 01:08 | 11.99595 | 124.51186 | 24500 ft | 400 kts | 326° |
| 2026-04-21 01:09 | 12.01944 | 124.49601 | 24929 ft | 403 kts | 326° |
| 2026-04-21 01:09 | 12.04289 | 124.48017 | 25343 ft | 406 kts | 326° |
| 2026-04-21 01:09 | 12.06659 | 124.46416 | 25757 ft | 409 kts | 326° |
| 2026-04-21 01:09 | 12.09022 | 124.44819 | 26172 ft | 412 kts | 326° |
| 2026-04-21 01:10 | 12.11441 | 124.43184 | 26589 ft | 415 kts | 325° |
| 2026-04-21 01:10 | 12.13876 | 124.41539 | 26999 ft | 417 kts | 325° |
| 2026-04-21 01:10 | 12.16277 | 124.39915 | 27392 ft | 420 kts | 325° |
| 2026-04-21 01:10 | 12.18738 | 124.38251 | 27776 ft | 422 kts | 325° |
| 2026-04-21 01:11 | 12.21189 | 124.36592 | 28147 ft | 425 kts | 325° |
| 2026-04-21 01:11 | 12.23659 | 124.34920 | 28511 ft | 427 kts | 325° |
| 2026-04-21 01:11 | 12.26137 | 124.33242 | 28867 ft | 429 kts | 325° |
| 2026-04-21 01:11 | 12.28643 | 124.31544 | 29213 ft | 432 kts | 325° |
| 2026-04-21 01:12 | 12.31158 | 124.29840 | 29602 ft | 432 kts | 325° |
| 2026-04-21 01:12 | 12.33664 | 124.28144 | 30069 ft | 431 kts | 325° |
| 2026-04-21 01:12 | 12.36157 | 124.26454 | 30528 ft | 429 kts | 324° |
| 2026-04-21 01:12 | 12.38598 | 124.24667 | 30972 ft | 428 kts | 321° |
| 2026-04-21 01:13 | 12.40945 | 124.22851 | 31396 ft | 426 kts | 321° |
| 2026-04-21 01:13 | 12.43294 | 124.21016 | 31815 ft | 425 kts | 320° |
| 2026-04-21 01:13 | 12.45640 | 124.19179 | 32222 ft | 425 kts | 320° |
| 2026-04-21 01:13 | 12.47996 | 124.17336 | 32582 ft | 425 kts | 320° |
| 2026-04-21 01:14 | 12.50340 | 124.15503 | 32899 ft | 426 kts | 320° |
| 2026-04-21 01:14 | 12.52725 | 124.13638 | 33217 ft | 428 kts | 320° |
| 2026-04-21 01:14 | 12.55072 | 124.11803 | 33519 ft | 429 kts | 320° |
| 2026-04-21 01:14 | 12.57456 | 124.09940 | 33830 ft | 430 kts | 320° |
| 2026-04-21 01:15 | 12.59848 | 124.08069 | 33985 ft | 431 kts | 320° |
| 2026-04-21 01:15 | 12.62218 | 124.06215 | 33989 ft | 431 kts | 320° |
| 2026-04-21 01:15 | 12.66995 | 124.02480 | 34000 ft | 430 kts | 320° |
| 2026-04-21 01:16 | 12.71754 | 123.98756 | 34005 ft | 431 kts | 320° |
| 2026-04-21 01:16 | 12.76524 | 123.95023 | 34013 ft | 430 kts | 320° |
| 2026-04-21 01:17 | 12.81291 | 123.91288 | 34005 ft | 430 kts | 320° |
| 2026-04-21 01:17 | 12.86025 | 123.87579 | 34002 ft | 429 kts | 320° |
| 2026-04-21 01:18 | 12.90784 | 123.83847 | 34003 ft | 429 kts | 320° |
| 2026-04-21 01:18 | 12.95515 | 123.80135 | 33999 ft | 429 kts | 320° |
| 2026-04-21 01:19 | 13.00252 | 123.76417 | 33995 ft | 429 kts | 320° |
| 2026-04-21 01:19 | 13.04986 | 123.72699 | 34001 ft | 429 kts | 320° |
| 2026-04-21 01:20 | 13.09739 | 123.68964 | 34002 ft | 429 kts | 320° |
| 2026-04-21 01:20 | 13.14386 | 123.65088 | 33998 ft | 427 kts | 317° |
| 2026-04-21 01:21 | 13.18911 | 123.61156 | 33998 ft | 427 kts | 317° |
| 2026-04-21 01:21 | 13.23429 | 123.57229 | 33995 ft | 427 kts | 317° |
| 2026-04-21 01:22 | 13.27985 | 123.53272 | 33996 ft | 427 kts | 317° |
| 2026-04-21 01:22 | 13.32515 | 123.49335 | 34002 ft | 427 kts | 317° |
| 2026-04-21 01:23 | 13.37051 | 123.45393 | 34009 ft | 427 kts | 317° |
| 2026-04-21 01:23 | 13.41589 | 123.41444 | 34011 ft | 427 kts | 317° |
| 2026-04-21 01:24 | 13.46102 | 123.37516 | 34007 ft | 427 kts | 317° |
| 2026-04-21 01:24 | 13.50651 | 123.33554 | 34004 ft | 426 kts | 316° |
| 2026-04-21 01:25 | 13.54974 | 123.29427 | 33996 ft | 424 kts | 310° |
| 2026-04-21 01:25 | 13.58699 | 123.24750 | 33984 ft | 421 kts | 302° |
| 2026-04-21 01:26 | 13.61722 | 123.19643 | 33978 ft | 418 kts | 294° |
| 2026-04-21 01:26 | 13.64291 | 123.14294 | 33979 ft | 418 kts | 293° |
| 2026-04-21 01:27 | 13.66844 | 123.08921 | 33980 ft | 418 kts | 293° |
| 2026-04-21 01:27 | 13.69395 | 123.03565 | 33983 ft | 418 kts | 293° |
| 2026-04-21 01:28 | 13.71963 | 122.98178 | 33983 ft | 417 kts | 293° |
| 2026-04-21 01:28 | 13.74505 | 122.92839 | 33984 ft | 417 kts | 293° |
| 2026-04-21 01:29 | 13.77043 | 122.87508 | 33985 ft | 417 kts | 293° |
| 2026-04-21 01:29 | 13.79603 | 122.82129 | 33987 ft | 417 kts | 293° |
| 2026-04-21 01:30 | 13.82151 | 122.76769 | 33994 ft | 417 kts | 294° |
| 2026-04-21 01:30 | 13.84697 | 122.71413 | 34000 ft | 417 kts | 293° |
| 2026-04-21 01:31 | 13.87230 | 122.66077 | 34003 ft | 417 kts | 294° |
| 2026-04-21 01:31 | 13.89776 | 122.60711 | 34003 ft | 417 kts | 294° |
| 2026-04-21 01:32 | 13.92323 | 122.55342 | 34001 ft | 417 kts | 293° |
| 2026-04-21 01:32 | 13.94848 | 122.50011 | 33583 ft | 417 kts | 293° |
| 2026-04-21 01:33 | 13.96122 | 122.47322 | 33038 ft | 415 kts | 293° |
| 2026-04-21 01:33 | 13.97374 | 122.44679 | 32472 ft | 413 kts | 293° |
| 2026-04-21 01:33 | 13.98626 | 122.42030 | 31892 ft | 413 kts | 293° |
| 2026-04-21 01:33 | 13.99884 | 122.39364 | 31276 ft | 414 kts | 294° |
| 2026-04-21 01:34 | 14.01136 | 122.36712 | 30649 ft | 415 kts | 294° |
| 2026-04-21 01:34 | 14.02407 | 122.34019 | 29999 ft | 417 kts | 294° |
| 2026-04-21 01:34 | 14.03668 | 122.31351 | 29345 ft | 418 kts | 294° |
| 2026-04-21 01:34 | 14.04941 | 122.28657 | 28734 ft | 418 kts | 294° |
| 2026-04-21 01:35 | 14.06207 | 122.25980 | 28287 ft | 414 kts | 294° |
| 2026-04-21 01:35 | 14.07466 | 122.23319 | 27831 ft | 411 kts | 294° |
| 2026-04-21 01:35 | 14.08714 | 122.20676 | 27377 ft | 408 kts | 294° |
| 2026-04-21 01:35 | 14.09935 | 122.18089 | 26936 ft | 405 kts | 294° |
| 2026-04-21 01:36 | 14.11167 | 122.15475 | 26493 ft | 402 kts | 294° |
| 2026-04-21 01:36 | 14.12388 | 122.12886 | 26054 ft | 399 kts | 294° |
| 2026-04-21 01:36 | 14.13593 | 122.10330 | 25614 ft | 396 kts | 294° |
| 2026-04-21 01:36 | 14.14794 | 122.07782 | 25168 ft | 394 kts | 294° |
| 2026-04-21 01:37 | 14.15983 | 122.05256 | 24721 ft | 392 kts | 294° |
| 2026-04-21 01:37 | 14.17156 | 122.02763 | 24272 ft | 390 kts | 294° |
| 2026-04-21 01:37 | 14.18339 | 122.00249 | 23813 ft | 388 kts | 294° |
| 2026-04-21 01:37 | 14.19517 | 121.97746 | 23381 ft | 385 kts | 294° |
| 2026-04-21 01:38 | 14.20661 | 121.95315 | 23186 ft | 375 kts | 294° |
| 2026-04-21 01:38 | 14.21793 | 121.92909 | 23046 ft | 364 kts | 294° |
| 2026-04-21 01:38 | 14.22842 | 121.90599 | 22748 ft | 358 kts | 292° |
| 2026-04-21 01:38 | 14.23851 | 121.88245 | 22335 ft | 357 kts | 292° |
| 2026-04-21 01:39 | 14.24844 | 121.85903 | 21925 ft | 355 kts | 292° |
| 2026-04-21 01:39 | 14.25825 | 121.83595 | 21529 ft | 354 kts | 292° |
| 2026-04-21 01:39 | 14.26812 | 121.81278 | 21129 ft | 352 kts | 292° |
| 2026-04-21 01:39 | 14.27792 | 121.78982 | 20735 ft | 350 kts | 292° |
| 2026-04-21 01:40 | 14.28777 | 121.76679 | 20344 ft | 348 kts | 292° |
| 2026-04-21 01:40 | 14.29740 | 121.74431 | 19965 ft | 346 kts | 293° |
| 2026-04-21 01:40 | 14.30711 | 121.72161 | 19571 ft | 344 kts | 293° |
| 2026-04-21 01:40 | 14.31674 | 121.69914 | 19182 ft | 342 kts | 293° |
| 2026-04-21 01:41 | 14.32639 | 121.67660 | 18795 ft | 340 kts | 293° |
| 2026-04-21 01:41 | 14.33587 | 121.65445 | 18423 ft | 338 kts | 293° |
| 2026-04-21 01:41 | 14.34530 | 121.63242 | 18029 ft | 337 kts | 293° |
| 2026-04-21 01:41 | 14.35470 | 121.61044 | 17647 ft | 334 kts | 293° |
| 2026-04-21 01:42 | 14.36401 | 121.58868 | 17275 ft | 332 kts | 293° |
| 2026-04-21 01:42 | 14.37330 | 121.56695 | 16914 ft | 330 kts | 293° |
| 2026-04-21 01:42 | 14.38250 | 121.54539 | 16548 ft | 328 kts | 294° |
| 2026-04-21 01:42 | 14.39169 | 121.52387 | 16180 ft | 327 kts | 294° |
| 2026-04-21 01:43 | 14.40082 | 121.50249 | 15808 ft | 325 kts | 294° |
| 2026-04-21 01:43 | 14.40985 | 121.48134 | 15435 ft | 324 kts | 294° |
| 2026-04-21 01:43 | 14.41891 | 121.45998 | 15051 ft | 324 kts | 292° |
| 2026-04-21 01:43 | 14.42346 | 121.43729 | 14553 ft | 326 kts | 266° |
| 2026-04-21 01:44 | 14.41885 | 121.41439 | 14070 ft | 328 kts | 253° |
| 2026-04-21 01:44 | 14.41174 | 121.39226 | 13565 ft | 331 kts | 252° |
| 2026-04-21 01:44 | 14.40451 | 121.36974 | 13221 ft | 328 kts | 253° |
| 2026-04-21 01:44 | 14.39779 | 121.34749 | 12915 ft | 323 kts | 254° |
| 2026-04-21 01:45 | 14.39152 | 121.32551 | 12607 ft | 318 kts | 255° |
| 2026-04-21 01:45 | 14.38552 | 121.30366 | 12287 ft | 315 kts | 255° |
| 2026-04-21 01:45 | 14.37967 | 121.28187 | 11880 ft | 313 kts | 255° |
| 2026-04-21 01:45 | 14.37400 | 121.26048 | 11500 ft | 312 kts | 255° |
| 2026-04-21 01:46 | 14.36825 | 121.23866 | 11131 ft | 311 kts | 255° |
| 2026-04-21 01:46 | 14.36269 | 121.21748 | 10761 ft | 310 kts | 255° |
| 2026-04-21 01:46 | 14.35708 | 121.19613 | 10387 ft | 309 kts | 255° |
| 2026-04-21 01:46 | 14.35145 | 121.17462 | 10005 ft | 308 kts | 255° |
| 2026-04-21 01:47 | 14.34591 | 121.15353 | 9657 ft | 307 kts | 255° |
| 2026-04-21 01:47 | 14.34032 | 121.13219 | 9279 ft | 306 kts | 255° |
| 2026-04-21 01:47 | 14.33481 | 121.11121 | 8917 ft | 305 kts | 255° |
| 2026-04-21 01:47 | 14.32932 | 121.09029 | 8570 ft | 303 kts | 255° |
| 2026-04-21 01:48 | 14.32379 | 121.06921 | 8217 ft | 301 kts | 255° |
| 2026-04-21 01:48 | 14.31837 | 121.04856 | 7863 ft | 300 kts | 255° |
| 2026-04-21 01:48 | 14.31290 | 121.02773 | 7523 ft | 298 kts | 255° |
| 2026-04-21 01:48 | 14.30755 | 121.00735 | 7182 ft | 296 kts | 254° |
| 2026-04-21 01:49 | 14.30220 | 120.98696 | 6819 ft | 295 kts | 254° |
| 2026-04-21 01:49 | 14.29688 | 120.96672 | 6465 ft | 293 kts | 254° |
| 2026-04-21 01:49 | 14.29152 | 120.94632 | 6181 ft | 289 kts | 254° |
| 2026-04-21 01:49 | 14.28632 | 120.92660 | 5930 ft | 284 kts | 254° |
| 2026-04-21 01:50 | 14.28125 | 120.90730 | 5732 ft | 276 kts | 255° |
| 2026-04-21 01:50 | 14.27949 | 120.88787 | 5524 ft | 268 kts | 283° |
| 2026-04-21 01:50 | 14.28766 | 120.87151 | 5295 ft | 257 kts | 320° |
| 2026-04-21 01:50 | 14.30271 | 120.86235 | 5069 ft | 246 kts | 341° |
| 2026-04-21 01:51 | 14.31871 | 120.85596 | 4793 ft | 244 kts | 341° |
| 2026-04-21 01:51 | 14.33429 | 120.84901 | 4512 ft | 244 kts | 338° |
| 2026-04-21 01:51 | 14.34940 | 120.84128 | 4237 ft | 243 kts | 335° |
| 2026-04-21 01:51 | 14.36425 | 120.83305 | 3971 ft | 241 kts | 334° |
| 2026-04-21 01:52 | 14.37890 | 120.82494 | 3757 ft | 235 kts | 341° |
| 2026-04-21 01:52 | 14.40662 | 120.83167 | 3153 ft | 211 kts | 60° |
| 2026-04-21 01:52 | 14.41305 | 120.84466 | 3081 ft | 198 kts | 66° |
| 2026-04-21 01:53 | 14.41934 | 120.85739 | 2983 ft | 196 kts | 64° |
| 2026-04-21 01:53 | 14.42563 | 120.86935 | 2943 ft | 184 kts | 63° |
| 2026-04-21 01:53 | 14.43178 | 120.88071 | 2719 ft | 179 kts | 63° |
| 2026-04-21 01:53 | 14.43788 | 120.89187 | 2411 ft | 178 kts | 63° |
| 2026-04-21 01:54 | 14.44396 | 120.90289 | 2145 ft | 172 kts | 63° |
| 2026-04-21 01:54 | 14.44963 | 120.91312 | 1921 ft | 158 kts | 62° |
| 2026-04-21 01:54 | 14.45485 | 120.92252 | 1704 ft | 145 kts | 63° |
| 2026-04-21 01:54 | 14.45971 | 120.93127 | 1522 ft | 138 kts | 63° |
| 2026-04-21 01:55 | 14.46453 | 120.93992 | 1377 ft | 137 kts | 64° |
| 2026-04-21 01:55 | 14.46921 | 120.94840 | 1213 ft | 137 kts | 63° |
| 2026-04-21 01:55 | 14.47394 | 120.95697 | 1037 ft | 137 kts | 62° |
| 2026-04-21 01:55 | 14.47871 | 120.96548 | 846 ft | 137 kts | 63° |
| 2026-04-21 01:56 | 14.48335 | 120.97392 | 644 ft | 135 kts | 62° |
| 2026-04-21 01:56 | 14.48795 | 120.98236 | 494 ft | 135 kts | 60° |
| 2026-04-21 01:56 | 14.49268 | 120.99088 | 329 ft | 135 kts | 61° |
| 2026-04-21 01:56 | 14.49738 | 120.99925 | 143 ft | 136 kts | 62° |
| 2026-04-21 01:57 | 14.50197 | 121.00751 | 82 ft | 124 kts | 63° |
| 2026-04-21 01:57 | 14.50542 | 121.01379 | 82 ft | 76 kts | 59° |
| 2026-04-21 01:57 | 14.50725 | 121.01678 | 82 ft | 32 kts | 46° |
| 2026-04-21 01:57 | 14.50851 | 121.01785 | 82 ft | 13 kts | 28° |
| 2026-04-21 01:58 | 14.50916 | 121.01762 | 82 ft | 10 kts | 314° |
| 2026-04-21 01:58 | 14.50971 | 121.01704 | 82 ft | 11 kts | 314° |
| 2026-04-21 01:58 | 14.51033 | 121.01641 | 82 ft | 12 kts | 315° |
| 2026-04-21 01:58 | 14.51098 | 121.01573 | 82 ft | 13 kts | 314° |
| 2026-04-21 01:59 | 14.51166 | 121.01502 | 82 ft | 14 kts | 315° |
| 2026-04-21 01:59 | 14.51236 | 121.01432 | 82 ft | 10 kts | 321° |
| 2026-04-21 01:59 | 14.51300 | 121.01450 | 82 ft | 12 kts | 44° |
| 2026-04-21 01:59 | 14.51359 | 121.01525 | 82 ft | 14 kts | 46° |
| 2026-04-21 02:00 | 14.51429 | 121.01588 | 82 ft | 10 kts | 17° |
| 2026-04-21 02:00 | 14.51489 | 121.01556 | 82 ft | 11 kts | 313° |
| 2026-04-21 02:00 | 14.51553 | 121.01489 | 82 ft | 14 kts | 315° |
| 2026-04-21 02:00 | 14.51629 | 121.01411 | 82 ft | 15 kts | 315° |
| 2026-04-21 02:01 | 14.51703 | 121.01334 | 82 ft | 14 kts | 314° |
| 2026-04-21 02:01 | 14.51774 | 121.01262 | 82 ft | 14 kts | 316° |
| 2026-04-21 02:01 | 14.51842 | 121.01193 | 82 ft | 13 kts | 315° |
| 2026-04-21 02:01 | 14.51907 | 121.01124 | 82 ft | 13 kts | 315° |
| 2026-04-21 02:02 | 14.51978 | 121.01053 | 82 ft | 14 kts | 315° |
| 2026-04-21 02:02 | 14.52050 | 121.00976 | 82 ft | 14 kts | 314° |
| 2026-04-21 02:02 | 14.52121 | 121.00903 | 82 ft | 14 kts | 314° |
| 2026-04-21 02:02 | 14.52183 | 121.00839 | 82 ft | 9 kts | 315° |
| 2026-04-21 02:03 | 14.52222 | 121.00839 | 82 ft | 6 kts | 44° |
| 2026-04-21 02:03 | 14.52246 | 121.00865 | 82 ft | 2 kts | 45° |
| 2026-04-21 02:03 | 14.52253 | 121.00872 | 82 ft | 0 kts | 44° |